Авиационная погода в аэропорту Байкал

СКИДКИ НА СМАРТФОНЫ!

Регион: 
Погода METAR: 
UIUU 091530Z 02002MPS 340V050 9999 NSC 15/08 Q1010 R26/60D NOSIG RMK QFE713/0951
Время наблюдения
2022-08-09T15:30:00Z
Температура C
15.0
Точка росы
8.0
Направление ветра
20
Скорость ветра (узлы)
4
Метео видимость
6.21
Облачность
CLR
Нижняя граница облачности (футы)
Явления погоды
Условия полета
VFR
Аэропорт подробнее: 
CLR — нет облаков ниже 3000 м

Скидки на навигаторы!